Time;durP1;ratioP1;P1;durP2;ratioP2;P2;SDS_P1;SDS_P2;PMS_P1;PMS_P2;Temp;Humidity;BMP_temperature;BMP_pressure;BME280_temperature;BME280_humidity;BME280_pressure;Samples;Min_cycle;Max_cycle;Signal;HPM_P1;HPM_P2
2022/01/29 00:03:38;;;;;;;3.62;2.70;;;;;;;3.13;51.06;100802.94;7737560;32;36919;-76
2022/01/29 00:07:54;;;;;;;3.75;2.60;;;;;;;3.09;50.61;100804.38;7739027;32;39234;-75
2022/01/29 00:12:11;;;;;;;4.53;2.85;;;;;;;2.81;51.56;100815.97;7738855;32;39986;-76
2022/01/29 00:16:27;;;;;;;4.32;3.00;;;;;;;2.70;51.89;100824.59;7738821;32;37640;-76
2022/01/29 00:20:44;;;;;;;5.87;2.75;;;;;;;2.58;52.10;100833.19;7738983;32;37547;-75
2022/01/29 00:25:00;;;;;;;3.10;2.60;;;;;;;2.56;52.40;100829.06;7738913;32;39216;-76
2022/01/29 00:29:20;;;;;;;3.20;2.90;;;;;;;2.63;52.06;100827.25;7738713;32;39888;-75
2022/01/29 00:33:38;;;;;;;5.93;3.33;;;;;;;2.67;52.44;100831.19;7738754;32;37848;-75
2022/01/29 00:37:54;;;;;;;2.97;2.70;;;;;;;2.23;53.96;100846.53;7737590;32;37582;-75
2022/01/29 00:42:10;;;;;;;6.75;3.05;;;;;;;2.27;53.96;100841.59;7737441;32;39275;-75
2022/01/29 00:46:31;;;;;;;3.00;2.78;;;;;;;2.21;54.03;100856.66;7738623;32;39717;-75
2022/01/29 00:50:48;;;;;;;5.40;3.08;;;;;;;2.07;54.71;100862.94;7738493;32;37748;-75
2022/01/29 00:55:05;;;;;;;3.87;2.90;;;;;;;2.66;52.62;100852.94;7738688;32;37819;-76
2022/01/29 00:59:22;;;;;;;3.25;2.90;;;;;;;2.69;52.53;100853.41;7738451;32;39791;-75
2022/01/29 01:03:39;;;;;;;3.12;2.75;;;;;;;2.53;52.74;100849.09;7738149;32;40952;-76
2022/01/29 01:07:55;;;;;;;3.85;3.08;;;;;;;2.16;53.90;100859.09;7738179;32;38622;-76
2022/01/29 01:12:11;;;;;;;5.80;3.00;;;;;;;2.58;52.66;100857.44;7738310;32;36873;-76
2022/01/29 01:16:27;;;;;;;6.47;3.20;;;;;;;2.50;52.75;100872.88;7738377;32;40001;-76
2022/01/29 01:20:43;;;;;;;7.97;3.12;;;;;;;2.60;52.53;100878.78;7738163;32;39949;-76
2022/01/29 01:24:59;;;;;;;6.22;3.28;;;;;;;2.60;52.42;100878.78;7738175;32;37958;-75
2022/01/29 01:29:16;;;;;;;3.83;2.90;;;;;;;2.51;52.58;100874.56;7738001;32;36774;-76
2022/01/29 01:33:32;;;;;;;6.30;3.12;;;;;;;2.53;52.53;100878.72;7738051;32;39144;-75
2022/01/29 01:37:53;;;;;;;5.05;3.45;;;;;;;2.32;52.93;100884.09;7737829;32;40536;-76
2022/01/29 01:42:09;;;;;;;3.40;3.05;;;;;;;2.36;52.96;100871.91;7737760;32;37793;-76
2022/01/29 01:46:28;;;;;;;5.85;3.47;;;;;;;2.49;52.34;100871.22;7737623;32;36960;-76
2022/01/29 01:50:44;;;;;;;5.35;2.87;;;;;;;2.31;52.55;100872.50;7737657;32;39340;-75
2022/01/29 01:55:00;;;;;;;9.27;2.87;;;;;;;2.36;52.20;100863.84;7737562;32;40891;-76
2022/01/29 01:59:16;;;;;;;3.90;3.42;;;;;;;2.23;52.56;100853.78;7736136;32;38136;-75
2022/01/29 02:03:33;;;;;;;3.72;3.00;;;;;;;1.94;53.27;100862.75;7737199;32;37063;-75
2022/01/29 02:07:51;;;;;;;5.03;3.37;;;;;;;1.65;53.66;100873.34;7737259;32;40583;-76
2022/01/29 02:12:09;;;;;;;4.32;2.95;;;;;;;1.85;52.92;100864.72;7737034;32;40683;-75
2022/01/29 02:16:30;;;;;;;5.93;3.47;;;;;;;1.81;52.92;100872.34;7736258;32;37226;-76
2022/01/29 02:20:46;;;;;;;6.40;3.12;;;;;;;1.76;53.57;100874.75;7737176;32;36995;-76
2022/01/29 02:25:03;;;;;;;5.32;3.17;;;;;;;1.92;52.98;100878.25;7736990;32;39290;-76
2022/01/29 02:29:20;;;;;;;7.25;2.87;;;;;;;1.82;53.23;100881.22;7736782;32;39876;-76
2022/01/29 02:33:39;;;;;;;3.65;3.00;;;;;;;1.95;52.79;100881.41;7736654;32;38602;-75
2022/01/29 02:37:56;;;;;;;6.30;3.10;;;;;;;2.05;52.27;100886.47;7736797;32;36960;-76
2022/01/29 02:42:12;;;;;;;3.62;2.70;;;;;;;2.12;52.13;100884.72;7736587;32;40044;-75
2022/01/29 02:46:40;;;;;;;4.55;3.20;;;;;;;1.95;52.20;100891.31;7736444;32;40028;-75
2022/01/29 02:50:56;;;;;;;5.75;3.33;;;;;;;2.09;51.50;100900.38;7736188;32;37408;-76
2022/01/29 02:55:12;;;;;;;3.30;3.05;;;;;;;2.09;51.28;100912.00;7736264;32;36984;-76
2022/01/29 02:59:28;;;;;;;4.75;3.30;;;;;;;2.27;50.48;100910.75;7736157;32;39560;-75
2022/01/29 03:03:44;;;;;;;3.72;3.33;;;;;;;2.42;49.73;100909.66;7735747;32;39967;-75
2022/01/29 03:08:00;;;;;;;3.05;2.78;;;;;;;2.43;49.50;100921.25;7735902;32;37912;-75
2022/01/29 03:12:17;;;;;;;5.03;3.17;;;;;;;2.30;50.06;100916.56;7735889;32;36955;-76
2022/01/29 03:16:33;;;;;;;5.75;3.00;;;;;;;2.23;50.03;100924.56;7735678;32;39234;-76
2022/01/29 03:20:49;;;;;;;3.35;3.00;;;;;;;1.69;50.73;100906.94;7735617;32;39914;-76
2022/01/29 03:25:06;;;;;;;3.10;2.90;;;;;;;2.36;49.14;100909.59;7735466;32;37939;-75
2022/01/29 03:29:22;;;;;;;5.07;3.55;;;;;;;2.56;48.17;100916.03;7737575;32;36946;-75
2022/01/29 03:33:38;;;;;;;7.30;3.05;;;;;;;2.42;48.16;100925.81;7739446;32;39998;-75
2022/01/29 03:37:54;;;;;;;6.03;3.12;;;;;;;2.60;47.74;100925.41;7739337;32;40045;-75
2022/01/29 03:42:12;;;;;;;12.82;3.17;;;;;;;2.23;47.95;100919.19;7739280;32;37904;-75
2022/01/29 03:46:29;;;;;;;8.77;4.10;;;;;;;2.54;47.24;100918.06;7739199;32;38232;-75
2022/01/29 03:50:45;;;;;;;8.38;4.18;;;;;;;2.58;47.13;100918.53;7739710;32;38228;-75
2022/01/29 03:55:01;;;;;;;4.60;3.03;;;;;;;2.44;46.96;100912.16;7739204;32;39866;-74
2022/01/29 03:59:17;;;;;;;3.45;3.10;;;;;;;2.72;46.34;100897.94;7739157;32;37582;-75
2022/01/29 04:03:34;;;;;;;6.30;2.92;;;;;;;2.73;46.10;100897.75;7738829;32;37648;-75
2022/01/29 04:07:50;;;;;;;3.92;2.87;;;;;;;2.91;45.67;100896.47;7738997;32;39153;-75
2022/01/29 04:12:06;;;;;;;6.85;3.10;;;;;;;3.12;45.28;100893.75;7738918;32;39848;-75
2022/01/29 04:16:23;;;;;;;7.15;3.00;;;;;;;2.82;45.71;100888.50;7739190;32;36996;-75
2022/01/29 04:20:39;;;;;;;4.43;2.80;;;;;;;2.36;46.98;100888.06;7738816;32;36908;-75
2022/01/29 04:24:55;;;;;;;4.80;3.10;;;;;;;2.47;47.19;100879.50;7738833;32;39979;-75
2022/01/29 04:29:11;;;;;;;3.92;3.08;;;;;;;2.78;46.88;100881.03;7738698;32;40710;-75
2022/01/29 04:33:30;;;;;;;4.45;3.12;;;;;;;2.99;45.60;100878.28;7738647;32;37918;-75
2022/01/29 04:37:49;;;;;;;5.87;3.33;;;;;;;3.00;45.41;100863.81;7738806;32;36780;-75
2022/01/29 04:42:06;;;;;;;3.42;2.83;;;;;;;3.17;45.08;100855.41;7738816;32;38182;-75
2022/01/29 04:46:22;;;;;;;6.03;3.22;;;;;;;3.08;45.88;100853.91;7738519;32;39898;-75
2022/01/29 04:50:39;;;;;;;4.37;3.50;;;;;;;3.09;45.53;100844.81;7738392;32;38659;-75
2022/01/29 04:54:55;;;;;;;6.95;3.53;;;;;;;3.31;44.88;100867.97;7738407;32;37713;-75
2022/01/29 04:59:11;;;;;;;3.05;2.83;;;;;;;3.27;44.18;100860.47;7738436;32;39984;-76
2022/01/29 05:03:27;;;;;;;5.45;2.80;;;;;;;3.27;43.87;100863.16;7738399;32;40742;-75
2022/01/29 05:07:43;;;;;;;5.43;3.45;;;;;;;3.31;43.42;100876.06;7738049;32;37939;-75
2022/01/29 05:12:01;;;;;;;6.82;3.60;;;;;;;3.36;43.07;100870.91;7738324;32;38123;-76
2022/01/29 05:29:51;;;;;;;9.35;3.45;;;;;;;3.56;41.98;100884.47;7738067;32;36649;-76
2022/01/29 05:34:08;;;;;;;4.68;3.10;;;;;;;3.33;42.98;100890.16;7738038;32;39377;-76
2022/01/29 05:38:26;;;;;;;6.75;3.12;;;;;;;2.57;45.22;100912.31;7737873;32;39873;-76
2022/01/29 05:42:42;;;;;;;6.45;3.60;;;;;;;3.06;44.42;100907.97;7737872;32;38046;-76
2022/01/29 05:46:58;;;;;;;6.57;3.00;;;;;;;3.20;43.40;100908.91;7737810;32;37335;-76
2022/01/29 05:51:15;;;;;;;3.60;3.00;;;;;;;2.89;44.98;100904.72;7736637;32;39914;-76
2022/01/29 05:55:31;;;;;;;5.82;3.10;;;;;;;3.19;44.52;100904.53;7737683;32;39932;-76
2022/01/29 05:59:47;;;;;;;7.15;3.20;;;;;;;2.98;43.93;100914.34;7737507;32;38665;-76
2022/01/29 06:04:03;;;;;;;5.65;3.45;;;;;;;2.96;44.95;100916.38;7737235;32;37627;-76
2022/01/29 06:08:19;;;;;;;6.30;3.30;;;;;;;2.96;44.48;100927.16;7737252;32;39183;-76
2022/01/29 06:12:35;;;;;;;7.87;3.85;;;;;;;2.76;45.33;100921.63;7735817;32;40055;-75
2022/01/29 06:16:51;;;;;;;7.78;3.40;;;;;;;3.02;45.97;100914.81;7736922;32;37863;-76
2022/01/29 06:21:09;;;;;;;4.30;3.30;;;;;;;2.98;46.19;100906.28;7737009;32;37134;-75
2022/01/29 06:25:25;;;;;;;4.37;3.10;;;;;;;3.25;44.83;100889.47;7736761;32;39294;-75
2022/01/29 06:29:41;;;;;;;5.65;3.28;;;;;;;3.31;43.46;100881.44;7736831;32;39955;-75
2022/01/29 06:33:57;;;;;;;8.18;3.40;;;;;;;3.13;43.64;100903.47;7736747;32;37894;-75
2022/01/29 06:38:14;;;;;;;5.70;3.72;;;;;;;3.05;46.87;100903.62;7736702;32;37708;-76
2022/01/29 06:42:30;;;;;;;7.90;3.60;;;;;;;2.93;47.57;100905.16;7735299;32;40045;-75
2022/01/29 06:46:46;;;;;;;4.87;3.35;;;;;;;2.60;48.65;100917.31;7736427;32;40075;-75
2022/01/29 06:51:02;;;;;;;9.68;4.05;;;;;;;2.67;49.04;100932.69;7736337;32;37987;-76
2022/01/29 06:55:18;;;;;;;10.23;3.45;;;;;;;2.39;49.72;100931.56;7736311;32;36996;-75
2022/01/29 06:59:35;;;;;;;4.70;3.62;;;;;;;2.33;49.02;100934.19;7736122;32;39982;-75
2022/01/29 07:03:51;;;;;;;12.35;4.03;;;;;;;2.14;49.73;100932.94;7738353;32;41520;-75
2022/01/29 07:08:07;;;;;;;8.30;4.00;;;;;;;2.46;49.33;100936.22;7739571;32;37806;-76
2022/01/29 07:12:25;;;;;;;9.90;3.80;;;;;;;1.70;51.69;100953.47;7739717;32;38382;-76
2022/01/29 07:16:43;;;;;;;6.70;4.10;;;;;;;2.39;50.35;100946.91;7739692;32;40068;-75
2022/01/29 07:20:59;;;;;;;6.72;3.80;;;;;;;2.56;50.27;100956.41;7739415;32;40788;-75
2022/01/29 07:25:20;;;;;;;6.30;4.03;;;;;;;2.29;51.28;100957.12;7739565;32;38573;-75
2022/01/29 07:29:36;;;;;;;6.20;3.90;;;;;;;2.51;51.20;100956.13;7739456;32;36934;-75
2022/01/29 07:33:52;;;;;;;13.57;3.95;;;;;;;2.94;49.58;100950.78;7739516;32;39274;-76
2022/01/29 07:38:08;;;;;;;13.48;3.97;;;;;;;2.76;50.24;100953.06;7739414;32;40840;-75
2022/01/29 07:42:24;;;;;;;7.05;3.78;;;;;;;3.20;48.71;100952.03;7739195;32;37858;-76
2022/01/29 07:46:40;;;;;;;6.25;3.75;;;;;;;2.77;50.21;100950.19;7739221;32;36988;-75
2022/01/29 07:50:56;;;;;;;4.85;3.60;;;;;;;2.67;50.46;100956.94;7739267;32;39291;-77
2022/01/29 07:55:12;;;;;;;7.30;3.97;;;;;;;3.44;57.28;100966.13;7739166;32;39991;-76
2022/01/29 07:59:28;;;;;;;9.93;3.87;;;;;;;3.54;48.30;100962.06;7739117;32;37898;-76
2022/01/29 08:03:49;;;;;;;9.88;5.72;;;;;;;3.46;47.99;100964.06;7738926;32;37268;-75
2022/01/29 08:08:05;;;;;;;8.85;5.00;;;;;;;3.01;49.10;100959.75;7739094;32;39920;-76
2022/01/29 08:12:21;;;;;;;7.12;4.10;;;;;;;2.93;50.24;100957.22;7739040;32;39695;-75
2022/01/29 08:16:38;;;;;;;11.25;4.70;;;;;;;2.99;50.93;100959.13;7738304;32;38027;-76
2022/01/29 08:20:55;;;;;;;14.73;4.43;;;;;;;2.57;51.42;100955.41;7738892;32;37787;-75
2022/01/29 08:25:11;;;;;;;8.68;4.50;;;;;;;2.36;51.47;100958.87;7738830;32;39937;-76
2022/01/29 08:29:27;;;;;;;13.75;5.53;;;;;;;2.03;52.79;100969.22;7738632;32;40749;-76
2022/01/29 08:33:44;;;;;;;10.35;5.00;;;;;;;2.86;50.94;100964.38;7738624;32;38674;-76
2022/01/29 08:38:00;;;;;;;10.63;4.55;;;;;;;2.95;51.36;100962.37;7738557;32;37773;-75
2022/01/29 08:42:16;;;;;;;9.23;4.40;;;;;;;3.60;48.04;100960.41;7738567;32;39274;-75
2022/01/29 08:46:32;;;;;;;9.65;4.43;;;;;;;2.96;50.57;100966.75;7738559;32;40022;-75
2022/01/29 08:50:48;;;;;;;13.77;4.78;;;;;;;3.34;48.96;100961.06;7738488;32;38100;-75
2022/01/29 08:55:06;;;;;;;12.30;4.25;;;;;;;3.63;48.87;100962.72;7738557;32;37041;-76
2022/01/29 08:59:22;;;;;;;14.35;4.70;;;;;;;3.85;48.53;100968.87;7737339;32;39254;-76
2022/01/29 09:03:39;;;;;;;20.52;5.72;;;;;;;2.82;51.26;100968.47;7738392;32;40785;-75
2022/01/29 09:07:55;;;;;;;13.70;4.85;;;;;;;2.96;51.61;100966.75;7737023;32;38528;-75
2022/01/29 09:12:12;;;;;;;11.10;5.53;;;;;;;3.58;50.09;100957.91;7738108;32;36917;-75
2022/01/29 09:16:28;;;;;;;15.52;5.55;;;;;;;4.06;49.02;100943.66;7738034;32;39264;-75
2022/01/29 09:20:44;;;;;;;13.88;5.53;;;;;;;4.28;48.27;100960.59;7737797;32;40865;-75
2022/01/29 09:25:00;;;;;;;13.07;5.50;;;;;;;4.59;47.50;100959.25;7737739;32;37939;-76
2022/01/29 09:29:16;;;;;;;11.80;5.43;;;;;;;3.76;49.37;100954.72;7737698;32;37012;-75
2022/01/29 09:33:32;;;;;;;10.70;5.60;;;;;;;4.04;49.22;100948.44;7737745;32;39449;-74
2022/01/29 09:37:48;;;;;;;18.80;5.40;;;;;;;3.84;49.78;100951.03;7736512;32;40795;-75
2022/01/29 09:42:07;;;;;;;12.30;5.68;;;;;;;4.13;48.47;100949.94;7737584;32;37990;-75
2022/01/29 09:46:27;;;;;;;14.55;5.95;;;;;;;4.50;48.20;100937.00;7737695;32;37059;-75
2022/01/29 09:50:43;;;;;;;10.25;4.80;;;;;;;4.39;47.37;100932.16;7737574;32;38936;-75
2022/01/29 09:55:00;;;;;;;16.02;4.87;;;;;;;4.33;47.53;100927.59;7737124;32;39540;-75
2022/01/29 09:59:16;;;;;;;13.18;4.82;;;;;;;4.09;48.22;100924.38;7737141;32;38396;-75
2022/01/29 10:03:32;;;;;;;11.52;4.85;;;;;;;4.41;47.41;100908.50;7732498;32;154959;-75
2022/01/29 10:08:00;;;;;;;10.20;4.90;;;;;;;3.97;48.47;100915.19;7736916;32;39964;-74
2022/01/29 10:12:18;;;;;;;9.82;4.90;;;;;;;4.25;48.97;100903.47;7735952;32;38561;-77
2022/01/29 10:16:41;;;;;;;13.75;5.35;;;;;;;3.66;48.80;100894.91;7736993;32;36899;-76
2022/01/29 10:21:15;;;;;;;14.00;4.87;;;;;;;3.92;48.51;100896.09;7737313;32;37044;-75
2022/01/29 10:25:36;;;;;;;13.50;5.60;;;;;;;3.99;48.74;100888.03;7736767;32;40097;-75
2022/01/29 10:30:00;;;;;;;12.55;5.22;;;;;;;4.60;47.49;100884.44;7736806;32;40840;-76
2022/01/29 10:34:26;;;;;;;14.77;5.15;;;;;;;4.88;47.11;100878.84;7735519;32;37961;-76
2022/01/29 10:38:57;;;;;;;8.23;4.75;;;;;;;4.47;48.11;100875.28;7738843;32;37163;-75
2022/01/29 10:43:13;;;;;;;14.63;5.57;;;;;;;4.53;47.41;100872.81;7739902;32;40147;-75
2022/01/29 10:47:30;;;;;;;13.48;5.35;;;;;;;4.80;47.43;100863.69;7739817;32;40535;-75
2022/01/29 10:52:06;;;;;;;20.48;7.30;;;;;;;4.74;47.44;100867.19;7739880;32;38021;-76
2022/01/29 10:56:22;;;;;;;17.30;6.50;;;;;;;4.82;46.67;100868.88;7739939;32;37179;-75
2022/01/29 11:00:38;;;;;;;17.65;5.60;;;;;;;5.12;46.27;100855.75;7739703;32;39482;-75
2022/01/29 11:05:02;;;;;;;12.10;5.43;;;;;;;4.69;48.14;100848.94;7739436;32;40827;-76
2022/01/29 11:09:18;;;;;;;18.98;5.72;;;;;;;4.92;47.51;100834.16;7739336;32;36901;-75
2022/01/29 11:13:37;;;;;;;13.32;5.47;;;;;;;4.96;48.50;100818.38;7739334;32;37126;-75
2022/01/29 11:17:53;;;;;;;13.77;5.05;;;;;;;4.64;48.55;100821.69;7739323;32;39127;-75
2022/01/29 11:22:10;;;;;;;19.70;7.32;;;;;;;5.04;48.56;100807.34;7738011;32;39971;-75
2022/01/29 11:26:29;;;;;;;14.07;5.32;;;;;;;5.67;47.05;100792.38;7737912;32;38694;-75
2022/01/29 11:30:47;;;;;;;11.30;5.43;;;;;;;5.60;47.25;100790.53;7738016;32;36344;-75
2022/01/29 11:35:08;;;;;;;17.83;5.62;;;;;;;5.63;47.48;100776.56;7739223;32;39231;-75
2022/01/29 11:39:28;;;;;;;12.50;4.87;;;;;;;5.80;47.36;100776.09;7738954;32;40732;-74
2022/01/29 11:43:44;;;;;;;13.38;4.75;;;;;;;5.86;47.30;100769.78;7738891;32;38843;-75
2022/01/29 11:48:31;;;;;;;13.55;4.72;;;;;;;5.77;47.26;100760.28;7737963;32;37689;-75
2022/01/29 11:52:58;;;;;;;15.75;4.87;;;;;;;5.69;48.08;100752.41;7736893;32;39213;-75
2022/01/29 11:57:14;;;;;;;22.95;4.60;;;;;;;5.29;49.70;100749.88;7738933;32;40106;-75
2022/01/29 12:01:31;;;;;;;21.05;5.60;;;;;;;5.12;50.15;100742.22;7738901;32;37998;-75
2022/01/29 12:10:40;;;;;;;10.43;4.62;;;;;;;5.52;49.67;100731.28;7738553;32;40164;-75
2022/01/29 12:14:57;;;;;;;11.65;5.20;;;;;;;5.23;50.18;100711.00;7738605;32;40714;-76
2022/01/29 12:19:32;;;;;;;10.10;4.30;;;;;;;5.15;49.60;100698.56;7738453;32;37581;-76
2022/01/29 12:23:50;;;;;;;13.15;5.40;;;;;;;5.13;49.52;100697.13;7738797;32;36882;-75
2022/01/29 12:28:07;;;;;;;10.93;4.55;;;;;;;5.81;48.44;100691.13;7738771;32;39309;-75
2022/01/29 12:32:23;;;;;;;17.48;5.32;;;;;;;5.92;48.10;100676.91;7738506;32;40032;-74
2022/01/29 12:36:39;;;;;;;11.60;5.00;;;;;;;5.89;47.70;100671.13;7738631;32;37676;-74
2022/01/29 12:41:09;;;;;;;14.02;5.15;;;;;;;6.17;46.62;100654.47;7738688;32;36991;-74
2022/01/29 12:45:27;;;;;;;15.00;5.15;;;;;;;5.62;47.56;100655.91;7738549;32;40195;-74
2022/01/29 12:49:45;;;;;;;13.40;5.35;;;;;;;5.84;47.77;100647.41;7738321;32;39945;-74
2022/01/29 12:54:03;;;;;;;15.32;6.60;;;;;;;6.48;46.21;100637.28;7738170;32;38558;-75
2022/01/29 12:58:30;;;;;;;13.85;5.80;;;;;;;5.86;47.80;100639.06;7738276;32;36368;-75
2022/01/29 13:02:48;;;;;;;13.95;5.55;;;;;;;6.30;46.86;100645.41;7737916;32;39296;-76
2022/01/29 13:07:07;;;;;;;13.38;5.30;;;;;;;5.81;48.18;100645.97;7738065;32;39034;-74
2022/01/29 13:11:26;;;;;;;16.15;4.85;;;;;;;5.94;47.56;100630.69;7738131;32;36963;-75
2022/01/29 13:15:44;;;;;;;17.75;6.35;;;;;;;5.77;48.40;100630.41;7737304;32;37176;-76
2022/01/29 13:20:00;;;;;;;19.95;7.80;;;;;;;5.18;50.19;100617.03;7738080;32;38898;-76
2022/01/29 13:24:27;;;;;;;23.45;7.20;;;;;;;5.91;48.59;100604.88;7736780;32;40798;-76
2022/01/29 13:28:56;;;;;;;22.75;7.80;;;;;;;5.88;48.62;100593.66;7737937;32;39153;-75
2022/01/29 13:33:22;;;;;;;15.88;5.97;;;;;;;5.87;48.40;100592.03;7737959;32;35817;-76
2022/01/29 13:37:38;;;;;;;21.80;6.18;;;;;;;5.98;47.66;100577.78;7737627;32;39356;-75
2022/01/29 13:42:15;;;;;;;13.77;5.80;;;;;;;5.70;48.53;100570.91;7737523;32;40098;-75
2022/01/29 13:46:31;;;;;;;15.85;7.00;;;;;;;6.43;46.32;100563.19;7735337;32;37963;-74
2022/01/29 13:50:50;;;;;;;18.65;7.25;;;;;;;5.65;48.65;100563.47;7734300;32;36944;-75
2022/01/29 13:55:09;;;;;;;19.00;6.20;;;;;;;5.59;48.64;100548.13;7736843;32;39296;-78
2022/01/29 13:59:41;;;;;;;15.43;6.32;;;;;;;5.87;48.01;100554.16;7709438;32;40782;-77
2022/01/29 14:04:09;;;;;;;19.65;6.30;;;;;;;6.59;46.60;100543.62;7710733;32;38728;-77
2022/01/29 14:08:27;;;;;;;13.38;5.47;;;;;;;6.30;47.47;100537.91;7736532;32;36826;-77
2022/01/29 14:12:48;;;;;;;15.43;5.78;;;;;;;5.65;48.83;100531.00;7735674;32;41185;-78
2022/01/29 14:17:22;;;;;;;11.93;5.12;;;;;;;5.77;47.92;100506.75;7735127;32;39933;-78
2022/01/29 14:21:38;;;;;;;;;;;;;;;5.86;47.48;100504.59;7736459;32;37733;-77
2022/01/29 14:25:54;;;;;;;10.60;5.93;;;;;;;5.99;47.60;100499.06;7736204;32;37280;-77
2022/01/29 14:30:10;;;;;;;12.57;5.20;;;;;;;5.77;47.94;100500.53;7735771;32;40092;-77
2022/01/29 14:34:26;;;;;;;12.35;6.57;;;;;;;5.76;47.74;100490.72;7735934;32;40839;-76
2022/01/29 14:38:43;;;;;;;17.85;7.65;;;;;;;5.26;48.79;100492.41;7735575;32;37920;-76
2022/01/29 14:42:59;;;;;;;31.30;12.65;;;;;;;5.49;48.34;100491.00;7735651;32;37109;-80
2022/01/29 14:47:15;;;;;;;11.18;5.30;;;;;;;5.69;47.91;100477.28;7735738;32;40545;-81
2022/01/29 14:51:38;;;;;;;18.17;5.47;;;;;;;5.60;47.92;100479.44;7735284;32;39952;-78
2022/01/29 14:55:54;;;;;;;10.43;4.70;;;;;;;5.67;47.42;100479.38;7734203;32;38771;-78
2022/01/29 15:00:11;;;;;;;13.52;5.95;;;;;;;5.32;48.83;100476.38;7735051;32;37141;-78
2022/01/29 15:04:27;;;;;;;10.98;5.40;;;;;;;5.01;50.56;100470.75;7734863;32;39416;-78
2022/01/29 15:08:44;;;;;;;9.82;4.10;;;;;;;4.80;51.90;100474.63;7734771;32;39873;-77
2022/01/29 15:13:00;;;;;;;9.63;4.25;;;;;;;4.37;53.85;100459.06;7734519;32;37834;-76
2022/01/29 15:17:16;;;;;;;10.32;4.55;;;;;;;5.00;52.11;100452.06;7734561;32;37042;-77
2022/01/29 15:21:33;;;;;;;17.42;7.25;;;;;;;4.60;53.77;100439.63;7734475;32;38974;-75
2022/01/29 15:25:51;;;;;;;13.55;5.22;;;;;;;4.99;53.03;100436.91;7738365;32;40850;-76
2022/01/29 15:30:08;;;;;;;11.18;4.82;;;;;;;4.99;53.78;100450.41;7738605;32;38961;-75
2022/01/29 15:34:24;;;;;;;11.48;4.28;;;;;;;4.14;57.03;100451.50;7738438;32;37129;-75
2022/01/29 15:38:40;;;;;;;9.57;4.85;;;;;;;4.29;56.54;100448.50;7738396;32;40083;-74
2022/01/29 15:42:56;;;;;;;10.20;5.28;;;;;;;4.12;57.88;100434.66;7738651;32;40027;-75
2022/01/29 15:47:12;;;;;;;11.25;5.15;;;;;;;4.26;57.78;100430.03;7738125;32;38018;-75
2022/01/29 15:51:28;;;;;;;9.23;4.45;;;;;;;4.54;57.31;100418.09;7737950;32;37266;-75
2022/01/29 15:55:44;;;;;;;14.60;4.90;;;;;;;4.02;58.81;100407.28;7738402;32;39303;-74
2022/01/29 16:00:00;;;;;;;13.00;5.30;;;;;;;4.23;58.55;100408.91;7737910;32;40810;-74
2022/01/29 16:04:17;;;;;;;9.00;4.90;;;;;;;4.08;59.38;100422.66;7738038;32;37935;-75
2022/01/29 16:08:33;;;;;;;18.10;6.28;;;;;;;4.13;59.50;100406.66;7738008;32;37061;-75
2022/01/29 16:12:49;;;;;;;11.00;5.18;;;;;;;3.50;62.68;100409.94;7738052;32;39286;-75
2022/01/29 16:17:06;;;;;;;13.35;5.57;;;;;;;3.87;60.93;100402.19;7738000;32;40188;-74
2022/01/29 16:21:22;;;;;;;9.90;5.28;;;;;;;4.26;60.46;100394.94;7738008;32;38641;-77
2022/01/29 16:25:40;;;;;;;9.75;4.90;;;;;;;4.38;59.25;100398.66;7738214;32;37857;-74
2022/01/29 16:29:56;;;;;;;10.38;5.57;;;;;;;4.36;59.73;100387.22;7737700;32;39387;-76
2022/01/29 16:34:13;;;;;;;13.15;5.60;;;;;;;3.84;61.39;100378.31;7737257;32;40843;-75
2022/01/29 16:38:29;;;;;;;11.43;5.90;;;;;;;4.02;61.28;100356.88;7737682;32;38169;-75
2022/01/29 16:42:46;;;;;;;16.65;5.95;;;;;;;3.90;61.66;100362.13;7738107;32;37194;-75
2022/01/29 16:47:03;;;;;;;11.80;5.40;;;;;;;4.20;60.56;100342.66;7737644;32;39418;-75
2022/01/29 16:51:20;;;;;;;11.77;5.32;;;;;;;4.16;59.33;100343.31;7737606;32;40476;-75
2022/01/29 16:55:36;;;;;;;9.98;6.22;;;;;;;4.05;59.96;100329.47;7737660;32;38500;-75
2022/01/29 16:59:52;;;;;;;10.10;5.22;;;;;;;3.97;59.63;100324.31;7737643;32;37872;-75
2022/01/29 17:04:09;;;;;;;10.40;5.80;;;;;;;4.17;58.73;100335.00;7736056;32;39300;-74
2022/01/29 17:08:25;;;;;;;10.63;4.93;;;;;;;3.22;60.92;100310.47;7737492;32;40116;-75
2022/01/29 17:12:42;;;;;;;13.60;5.55;;;;;;;3.80;58.64;100313.19;7737610;32;37843;-74
2022/01/29 17:16:58;;;;;;;17.10;8.10;;;;;;;3.78;59.89;100298.25;7737140;32;37347;-75
2022/01/29 17:21:15;;;;;;;17.77;6.10;;;;;;;3.41;60.93;100288.03;7737308;32;40013;-74
2022/01/29 17:25:31;;;;;;;10.75;5.37;;;;;;;3.52;61.10;100273.91;7736662;32;40800;-76
2022/01/29 17:29:47;;;;;;;8.95;5.03;;;;;;;3.19;61.48;100285.63;7736866;32;37780;-74
2022/01/29 17:34:06;;;;;;;11.48;5.20;;;;;;;3.75;60.69;100270.66;7737526;32;37393;-74
2022/01/29 17:38:23;;;;;;;14.10;6.15;;;;;;;3.48;62.49;100271.84;7736710;32;39662;-74
2022/01/29 17:42:39;;;;;;;13.00;5.05;;;;;;;2.97;64.44;100276.94;7737380;32;40222;-75
2022/01/29 17:46:55;;;;;;;9.18;5.80;;;;;;;3.33;63.89;100275.63;7735371;32;37969;-74
2022/01/29 17:51:11;;;;;;;9.50;5.45;;;;;;;3.34;64.51;100279.97;7736820;32;37266;-75
2022/01/29 17:55:34;;;;;;;16.05;5.95;;;;;;;3.74;63.67;100271.72;7736838;32;40107;-75
2022/01/29 17:59:50;;;;;;;13.83;6.80;;;;;;;2.75;67.72;100268.28;7736606;32;40753;-75
2022/01/29 18:04:06;;;;;;;13.38;7.22;;;;;;;3.11;66.06;100261.59;7736679;32;38607;-75
2022/01/29 18:08:23;;;;;;;15.40;5.80;;;;;;;3.05;66.42;100256.22;7736197;32;37976;-75
2022/01/29 18:12:39;;;;;;;13.15;6.82;;;;;;;3.57;65.40;100255.22;7736716;32;39441;-74
2022/01/29 18:16:55;;;;;;;8.70;5.37;;;;;;;3.15;66.77;100251.22;7735050;32;41643;-74
2022/01/29 18:21:14;;;;;;;9.38;6.15;;;;;;;3.16;67.55;100255.56;7735195;32;37854;-75
2022/01/29 18:25:36;;;;;;;14.57;6.93;;;;;;;3.09;68.09;100244.00;7736771;32;37467;-74
2022/01/29 18:29:52;;;;;;;15.50;6.40;;;;;;;3.08;68.09;100242.31;7735612;32;40091;-75
2022/01/29 18:34:10;;;;;;;13.88;6.15;;;;;;;3.37;68.18;100228.34;7736320;32;38927;-74
2022/01/29 18:38:26;;;;;;;18.73;7.12;;;;;;;2.84;70.18;100228.50;7735283;32;38035;-74
2022/01/29 18:42:45;;;;;;;14.70;7.90;;;;;;;3.14;68.58;100219.91;7736251;32;37378;-74
2022/01/29 18:47:02;;;;;;;31.83;17.98;;;;;;;3.13;68.82;100211.00;7735890;32;38873;-75
2022/01/29 18:51:19;;;;;;;15.52;8.23;;;;;;;3.14;68.69;100207.28;7735390;32;40821;-75
2022/01/29 18:55:36;;;;;;;13.45;7.35;;;;;;;2.89;69.53;100201.75;7735985;32;37957;-74
2022/01/29 18:59:52;;;;;;;16.87;8.13;;;;;;;3.62;67.09;100187.16;7737706;32;37795;-75
2022/01/29 19:04:08;;;;;;;17.83;8.18;;;;;;;3.55;67.27;100180.97;7739263;32;39309;-74
2022/01/29 19:08:25;;;;;;;20.98;11.00;;;;;;;3.81;66.61;100163.81;7738639;32;40755;-75
2022/01/29 19:12:44;;;;;;;21.77;11.32;;;;;;;3.58;67.28;100154.41;7739057;32;38179;-75
2022/01/29 19:17:01;;;;;;;22.73;10.00;;;;;;;3.16;69.29;100162.09;7739284;32;36741;-74
2022/01/29 19:21:17;;;;;;;20.12;9.55;;;;;;;3.53;68.21;100161.50;7738327;32;40027;-75
2022/01/29 19:25:34;;;;;;;12.45;7.22;;;;;;;3.43;67.90;100158.44;7739271;32;40653;-75
2022/01/29 19:29:51;;;;;;;11.75;7.10;;;;;;;3.25;69.12;100143.81;7738316;32;38087;-75
2022/01/29 19:34:07;;;;;;;9.52;6.15;;;;;;;3.50;67.62;100141.19;7738895;32;37051;-75
2022/01/29 19:38:23;;;;;;;11.50;6.25;;;;;;;2.66;70.83;100128.69;7737776;32;39666;-75
2022/01/29 19:42:40;;;;;;;13.93;7.60;;;;;;;3.38;69.34;100122.19;7738476;32;40810;-75
2022/01/29 19:46:57;;;;;;;14.23;7.72;;;;;;;3.44;68.99;100106.19;7737413;32;38652;-77
2022/01/29 19:51:14;;;;;;;12.18;6.55;;;;;;;3.82;67.52;100094.50;7738540;32;37090;-75
2022/01/29 19:55:32;;;;;;;11.20;5.68;;;;;;;4.01;66.68;100082.72;7737937;32;39228;-75
2022/01/29 19:59:48;;;;;;;9.25;5.50;;;;;;;4.07;66.14;100076.44;7739105;32;40004;-75
2022/01/29 20:04:04;;;;;;;10.13;5.95;;;;;;;4.22;66.11;100067.16;7738680;32;37934;-74
2022/01/29 20:08:22;;;;;;;12.65;5.93;;;;;;;4.12;66.08;100063.13;7737880;32;37392;-75
2022/01/29 20:12:38;;;;;;;9.35;5.22;;;;;;;4.23;65.52;100058.84;7737100;32;39849;-76
2022/01/29 20:16:54;;;;;;;9.93;6.55;;;;;;;3.51;67.41;100067.34;7739064;32;39998;-76
2022/01/29 20:21:11;;;;;;;10.23;5.25;;;;;;;3.97;66.56;100059.09;7724307;32;38563;-74
2022/01/29 20:25:29;;;;;;;10.75;5.37;;;;;;;3.87;66.67;100054.22;7737932;32;37918;-74